Time;durP1;ratioP1;P1;durP2;ratioP2;P2;SDS_P1;SDS_P2;PMS_P1;PMS_P2;Temp;Humidity;BMP_temperature;BMP_pressure;BME280_temperature;BME280_humidity;BME280_pressure;Samples;Min_cycle;Max_cycle;Signal;HPM_P1;HPM_P2
2023/07/04 00:00:40;;;;;;;5.80;2.00;;;;;;;;;;4936166;29;20099;-74
2023/07/04 00:03:05;;;;;;;4.95;2.20;;;;;;;;;;4940047;29;20033;-75
2023/07/04 00:05:33;;;;;;;6.05;2.20;;;;;;;;;;4936030;29;20475;-75
2023/07/04 00:07:59;;;;;;;8.85;2.30;;;;;;;;;;4923406;29;20388;-75
2023/07/04 00:10:25;;;;;;;4.65;2.45;;;;;;;;;;4955103;29;20027;-75
2023/07/04 00:12:51;;;;;;;7.60;2.00;;;;;;;;;;4954989;29;20028;-75
2023/07/04 00:15:17;;;;;;;4.50;2.13;;;;;;;;;;4937473;29;20379;-75
2023/07/04 00:17:45;;;;;;;5.28;2.15;;;;;;;;;;4954246;29;20097;-75
2023/07/04 00:20:11;;;;;;;9.55;2.40;;;;;;;;;;4920887;29;20020;-75
2023/07/04 00:22:36;;;;;;;2.88;1.92;;;;;;;;;;4919511;29;20027;-75
2023/07/04 00:25:04;;;;;;;5.30;2.22;;;;;;;;;;4954546;29;20536;-76
2023/07/04 00:27:33;;;;;;;6.55;2.75;;;;;;;;;;4933980;29;20052;-75
2023/07/04 00:29:59;;;;;;;9.45;2.25;;;;;;;;;;4934020;29;20031;-76
2023/07/04 00:32:25;;;;;;;4.53;1.83;;;;;;;;;;4934056;29;20350;-75
2023/07/04 00:34:51;;;;;;;6.07;2.95;;;;;;;;;;4917681;29;20142;-75
2023/07/04 00:37:21;;;;;;;8.90;2.40;;;;;;;;;;4935396;29;20027;-75
2023/07/04 00:39:49;;;;;;;8.75;2.25;;;;;;;;;;4933935;29;20035;-74
2023/07/04 00:42:14;;;;;;;3.90;1.95;;;;;;;;;;4918306;29;20508;-74
2023/07/04 00:44:47;;;;;;;8.20;2.03;;;;;;;;;;4935508;29;20059;-75
2023/07/04 00:47:21;;;;;;;4.22;2.00;;;;;;;;;;4918101;29;20036;-75
2023/07/04 00:49:57;;;;;;;4.25;2.20;;;;;;;;;;4923803;29;20586;-75
2023/07/04 00:52:34;;;;;;;3.63;2.13;;;;;;;;;;4916192;29;20060;-75
2023/07/04 00:55:05;;;;;;;12.73;2.20;;;;;;;;;;4934004;29;20111;-75
2023/07/04 00:57:33;;;;;;;6.55;2.08;;;;;;;;;;4933810;29;20032;-76
2023/07/04 01:00:15;;;;;;;2.10;1.90;;;;;;;;;;4933143;29;20039;-74
2023/07/04 01:02:45;;;;;;;7.63;2.00;;;;;;;;;;4898847;29;20469;-75
2023/07/04 01:05:13;;;;;;;7.55;2.03;;;;;;;;;;4898445;29;20032;-75
2023/07/04 01:07:54;;;;;;;5.50;1.50;;;;;;;;;;4914396;29;20055;-75
2023/07/04 01:10:30;;;;;;;6.50;2.43;;;;;;;;;;4934661;29;20027;-76
2023/07/04 01:12:56;;;;;;;3.10;1.80;;;;;;;;;;4934546;29;20110;-76
2023/07/04 01:15:23;;;;;;;5.28;1.98;;;;;;;;;;4934429;29;20157;-75
2023/07/04 01:17:52;;;;;;;4.95;2.33;;;;;;;;;;4916730;29;20055;-75
2023/07/04 01:20:18;;;;;;;3.72;1.85;;;;;;;;;;4922380;29;20039;-75
2023/07/04 01:23:14;;;;;;;6.38;2.47;;;;;;;;;;4915461;29;20115;-76
2023/07/04 01:26:27;;;;;;;3.75;1.55;;;;;;;;;;4915411;29;20024;-76
2023/07/04 01:28:54;;;;;;;3.65;2.25;;;;;;;;;;4889009;29;20122;-76
2023/07/04 01:31:22;;;;;;;3.92;1.77;;;;;;;;;;4913971;29;20111;-74
2023/07/04 01:33:48;;;;;;;6.03;2.13;;;;;;;;;;4913603;29;20078;-74
2023/07/04 01:36:22;;;;;;;3.95;2.00;;;;;;;;;;4898129;29;20090;-75
2023/07/04 01:38:48;;;;;;;5.60;2.72;;;;;;;;;;4901381;29;20040;-75
2023/07/04 01:41:15;;;;;;;3.83;2.00;;;;;;;;;;4915838;29;20394;-76
2023/07/04 01:43:41;;;;;;;6.88;3.25;;;;;;;;;;4920687;29;20131;-76
2023/07/04 01:46:07;;;;;;;6.57;3.13;;;;;;;;;;4917905;29;20027;-77
2023/07/04 01:48:33;;;;;;;3.42;1.88;;;;;;;;;;4934378;29;20298;-75
2023/07/04 01:50:58;;;;;;;7.03;1.90;;;;;;;;;;4920904;29;20711;-77
2023/07/04 01:53:24;;;;;;;5.30;2.10;;;;;;;;;;4926587;29;20027;-76
2023/07/04 01:55:49;;;;;;;6.57;2.67;;;;;;;;;;4935662;29;20034;-77
2023/07/04 01:58:15;;;;;;;3.10;1.85;;;;;;;;;;4918670;29;20408;-77
2023/07/04 02:00:41;;;;;;;3.60;1.95;;;;;;;;;;4934808;29;20054;-77
2023/07/04 02:03:07;;;;;;;3.75;1.88;;;;;;;;;;4934410;29;20114;-77
2023/07/04 02:05:32;;;;;;;4.78;2.17;;;;;;;;;;4923916;29;20587;-77
2023/07/04 02:07:58;;;;;;;6.03;2.20;;;;;;;;;;4897876;29;20043;-76
2023/07/04 02:10:24;;;;;;;3.72;1.70;;;;;;;;;;4931903;29;20062;-76
2023/07/04 02:12:50;;;;;;;5.60;1.80;;;;;;;;;;4934320;29;20035;-77
2023/07/04 02:15:15;;;;;;;5.70;2.08;;;;;;;;;;4922554;29;20039;-76
2023/07/04 02:17:41;;;;;;;4.22;2.17;;;;;;;;;;4938056;29;20099;-76
2023/07/04 02:20:07;;;;;;;5.93;1.80;;;;;;;;;;4916697;29;20028;-76
2023/07/04 02:22:33;;;;;;;3.40;1.83;;;;;;;;;;4916537;29;20031;-76
2023/07/04 02:24:59;;;;;;;4.57;2.00;;;;;;;;;;4933335;29;20046;-76
2023/07/04 02:27:24;;;;;;;8.50;2.30;;;;;;;;;;4923076;29;20055;-76
2023/07/04 02:29:50;;;;;;;7.40;2.33;;;;;;;;;;4933368;29;20578;-77
2023/07/04 02:32:15;;;;;;;8.98;1.85;;;;;;;;;;4933726;29;20040;-76
2023/07/04 02:34:41;;;;;;;4.63;2.20;;;;;;;;;;4932972;29;20051;-76
2023/07/04 02:37:07;;;;;;;6.63;2.10;;;;;;;;;;4915810;29;20713;-76
2023/07/04 02:39:32;;;;;;;3.25;1.80;;;;;;;;;;4933225;29;20032;-78
2023/07/04 02:41:58;;;;;;;3.53;1.60;;;;;;;;;;4915892;29;20039;-76
2023/07/04 02:44:23;;;;;;;5.10;2.15;;;;;;;;;;4933280;29;20027;-76
2023/07/04 02:46:49;;;;;;;4.07;1.73;;;;;;;;;;4900196;29;20142;-77
2023/07/04 02:49:15;;;;;;;7.63;2.28;;;;;;;;;;4933348;29;20050;-76
2023/07/04 02:51:40;;;;;;;4.65;1.73;;;;;;;;;;4918307;29;20481;-77
2023/07/04 02:54:05;;;;;;;5.28;2.33;;;;;;;;;;4899684;29;20042;-75
2023/07/04 02:56:31;;;;;;;5.28;2.55;;;;;;;;;;4917888;29;20038;-76
2023/07/04 02:58:57;;;;;;;5.00;2.08;;;;;;;;;;4917828;29;20468;-76
2023/07/04 03:01:23;;;;;;;5.43;2.28;;;;;;;;;;4934188;29;20027;-76
2023/07/04 03:03:48;;;;;;;4.72;1.95;;;;;;;;;;4935024;29;20453;-77
2023/07/04 03:06:14;;;;;;;4.70;2.30;;;;;;;;;;4917758;29;20089;-77
2023/07/04 03:08:39;;;;;;;4.30;2.08;;;;;;;;;;4920666;29;20529;-77
2023/07/04 03:11:04;;;;;;;4.57;1.90;;;;;;;;;;4936291;29;20032;-77
2023/07/04 03:13:31;;;;;;;5.68;1.95;;;;;;;;;;4936655;29;20036;-76
2023/07/04 03:15:57;;;;;;;6.68;2.95;;;;;;;;;;4919877;29;20544;-76
2023/07/04 03:18:23;;;;;;;3.78;2.00;;;;;;;;;;4918400;29;20036;-77
2023/07/04 03:20:48;;;;;;;4.95;1.88;;;;;;;;;;4907748;29;20043;-76
2023/07/04 03:23:14;;;;;;;2.67;2.10;;;;;;;;;;4901408;29;20036;-76
2023/07/04 03:25:39;;;;;;;2.50;1.70;;;;;;;;;;4913800;29;20083;-76
2023/07/04 03:28:05;;;;;;;4.47;1.83;;;;;;;;;;4914716;29;20044;-77
2023/07/04 03:30:31;;;;;;;3.85;2.00;;;;;;;;;;4932705;29;20032;-75
2023/07/04 03:32:56;;;;;;;5.40;2.33;;;;;;;;;;4934144;29;20023;-76
2023/07/04 03:35:22;;;;;;;4.35;2.55;;;;;;;;;;4950793;29;20487;-76
2023/07/04 03:37:48;;;;;;;6.28;2.17;;;;;;;;;;4903006;29;20094;-76
2023/07/04 03:40:13;;;;;;;4.05;2.17;;;;;;;;;;4933337;29;20441;-76
2023/07/04 03:42:39;;;;;;;2.97;1.90;;;;;;;;;;4933522;29;20546;-76
2023/07/04 03:45:06;;;;;;;6.78;2.05;;;;;;;;;;4951146;29;20380;-75
2023/07/04 03:47:32;;;;;;;5.40;2.10;;;;;;;;;;4933983;29;20030;-75
2023/07/04 03:49:58;;;;;;;4.32;2.13;;;;;;;;;;4934099;29;20020;-75
2023/07/04 03:52:23;;;;;;;5.30;2.55;;;;;;;;;;4936158;29;20063;-75
2023/07/04 03:54:49;;;;;;;3.35;2.00;;;;;;;;;;4933454;29;20046;-74
2023/07/04 03:57:14;;;;;;;6.07;2.38;;;;;;;;;;4951426;29;20039;-75
2023/07/04 03:59:40;;;;;;;5.75;2.75;;;;;;;;;;4951395;29;20077;-74
2023/07/04 04:02:06;;;;;;;3.45;1.98;;;;;;;;;;4951337;29;20034;-75
2023/07/04 04:04:38;;;;;;;8.20;2.63;;;;;;;;;;4951433;29;20059;-75
2023/07/04 04:07:07;;;;;;;5.82;2.70;;;;;;;;;;4951176;29;20063;-75
2023/07/04 04:09:34;;;;;;;5.25;2.42;;;;;;;;;;4930608;29;20056;-75
2023/07/04 04:12:00;;;;;;;9.55;3.05;;;;;;;;;;4932181;29;20035;-75
2023/07/04 04:14:28;;;;;;;4.40;2.30;;;;;;;;;;4926423;29;20031;-74
2023/07/04 04:16:53;;;;;;;4.78;2.22;;;;;;;;;;4930560;29;20034;-75
2023/07/04 04:19:19;;;;;;;3.85;1.83;;;;;;;;;;4930308;29;20039;-74
2023/07/04 04:21:44;;;;;;;4.50;2.15;;;;;;;;;;4954539;29;20031;-75
2023/07/04 04:24:11;;;;;;;4.97;2.33;;;;;;;;;;4953177;28;20482;-75
2023/07/04 04:26:40;;;;;;;4.90;2.15;;;;;;;;;;4950896;28;20091;-78
2023/07/04 04:29:07;;;;;;;4.60;1.98;;;;;;;;;;4952319;29;20023;-78
2023/07/04 04:31:38;;;;;;;4.72;2.38;;;;;;;;;;4936257;29;20125;-77
2023/07/04 04:34:04;;;;;;;4.10;2.20;;;;;;;;;;4949624;29;20046;-78
2023/07/04 04:36:30;;;;;;;5.15;2.13;;;;;;;;;;4955462;28;20143;-77
2023/07/04 04:38:57;;;;;;;4.15;2.17;;;;;;;;;;4952171;28;20182;-77
2023/07/04 04:41:22;;;;;;;7.82;2.63;;;;;;;;;;4953641;29;20070;-78
2023/07/04 04:43:49;;;;;;;5.60;2.17;;;;;;;;;;4954712;29;20110;-78
2023/07/04 04:46:16;;;;;;;4.28;2.10;;;;;;;;;;4943050;29;20046;-78
2023/07/04 04:48:42;;;;;;;3.17;1.73;;;;;;;;;;4949082;29;20019;-79
2023/07/04 04:51:15;;;;;;;6.78;2.17;;;;;;;;;;4938774;29;20030;-76
2023/07/04 04:53:47;;;;;;;6.25;2.05;;;;;;;;;;4946928;29;20027;-77
2023/07/04 04:56:13;;;;;;;7.55;2.60;;;;;;;;;;4941936;28;20026;-75
2023/07/04 04:58:43;;;;;;;3.47;2.00;;;;;;;;;;4957574;28;20020;-78
2023/07/04 05:01:17;;;;;;;2.25;1.75;;;;;;;;;;4934424;29;20019;-75
2023/07/04 05:03:43;;;;;;;4.55;2.08;;;;;;;;;;4927467;29;20493;-77
2023/07/04 05:06:10;;;;;;;4.20;2.00;;;;;;;;;;4951773;28;20023;-76
2023/07/04 05:08:35;;;;;;;5.88;2.47;;;;;;;;;;4926920;29;20031;-77
2023/07/04 05:11:04;;;;;;;5.55;2.55;;;;;;;;;;4952163;29;20027;-78
2023/07/04 05:13:35;;;;;;;5.97;2.42;;;;;;;;;;4954650;28;20030;-78
2023/07/04 05:16:02;;;;;;;2.67;2.08;;;;;;;;;;4956212;28;20053;-78
2023/07/04 05:18:29;;;;;;;3.22;2.10;;;;;;;;;;4935275;29;20461;-77
2023/07/04 05:21:03;;;;;;;5.65;2.03;;;;;;;;;;4941203;28;20051;-77
2023/07/04 05:23:30;;;;;;;4.85;2.33;;;;;;;;;;4945912;28;20114;-77
2023/07/04 05:26:09;;;;;;;3.70;2.28;;;;;;;;;;4946501;28;20061;-77
2023/07/04 05:28:35;;;;;;;5.30;1.92;;;;;;;;;;4950746;28;20571;-77
2023/07/04 05:31:05;;;;;;;5.70;2.10;;;;;;;;;;4918371;29;20038;-77
2023/07/04 05:33:32;;;;;;;7.15;2.65;;;;;;;;;;4936431;29;20061;-80
2023/07/04 05:36:26;;;;;;;3.22;2.28;;;;;;;;;;4957313;28;20892;-79
2023/07/04 05:38:53;;;;;;;4.32;2.13;;;;;;;;;;4935231;29;20054;-75
2023/07/04 05:41:23;;;;;;;4.65;1.98;;;;;;;;;;4953255;29;20038;-77
2023/07/04 05:43:49;;;;;;;4.95;2.28;;;;;;;;;;4946911;28;20046;-76
2023/07/04 05:46:17;;;;;;;7.30;3.00;;;;;;;;;;4952552;28;20045;-79
2023/07/04 05:48:43;;;;;;;5.93;2.15;;;;;;;;;;4956949;29;20035;-78
2023/07/04 05:51:12;;;;;;;4.53;2.47;;;;;;;;;;4940722;28;20027;-81
2023/07/04 05:53:40;;;;;;;8.13;2.08;;;;;;;;;;4948736;29;20035;-81
2023/07/04 05:56:24;;;;;;;4.43;2.17;;;;;;;;;;4958625;28;20027;-81
2023/07/04 05:58:55;;;;;;;8.10;3.95;;;;;;;;;;4958333;28;20054;-79
2023/07/04 06:01:33;;;;;;;4.30;2.22;;;;;;;;;;4937913;29;20031;-77
2023/07/04 06:04:03;;;;;;;6.03;1.80;;;;;;;;;;4957532;29;20023;-79
2023/07/04 06:06:39;;;;;;;6.13;2.17;;;;;;;;;;4929314;28;20054;-76
2023/07/04 06:09:08;;;;;;;4.40;1.42;;;;;;;;;;4949539;29;20066;-75
2023/07/04 06:11:36;;;;;;;3.03;1.58;;;;;;;;;;4926275;29;20074;-75
2023/07/04 06:14:25;;;;;;;5.80;1.88;;;;;;;;;;4955883;29;20030;-77
2023/07/04 06:16:55;;;;;;;6.80;1.95;;;;;;;;;;4940785;29;20114;-82
2023/07/04 06:19:20;;;;;;;7.30;4.25;;;;;;;;;;4938061;29;20028;-79
2023/07/04 06:21:46;;;;;;;2.40;2.03;;;;;;;;;;4956366;28;20030;-78
2023/07/04 06:24:15;;;;;;;2.53;1.48;;;;;;;;;;4936252;28;20050;-77
2023/07/04 06:26:41;;;;;;;2.28;1.60;;;;;;;;;;4934828;29;20052;-77
2023/07/04 06:29:06;;;;;;;2.63;1.60;;;;;;;;;;4937689;29;20046;-77
2023/07/04 06:31:33;;;;;;;6.45;2.55;;;;;;;;;;4941753;29;20039;-78
2023/07/04 06:34:00;;;;;;;3.35;1.63;;;;;;;;;;4931586;29;20036;-78
2023/07/04 06:36:25;;;;;;;5.05;2.00;;;;;;;;;;4943188;29;20045;-78
2023/07/04 06:38:51;;;;;;;3.60;1.75;;;;;;;;;;4935876;28;20104;-78
2023/07/04 06:41:20;;;;;;;4.03;1.80;;;;;;;;;;4922423;29;20031;-78
2023/07/04 06:43:48;;;;;;;5.70;3.10;;;;;;;;;;4929122;29;20051;-81
2023/07/04 06:46:20;;;;;;;4.78;2.10;;;;;;;;;;4933125;29;20035;-78
2023/07/04 06:48:51;;;;;;;5.28;2.30;;;;;;;;;;4949370;28;20031;-80
2023/07/04 06:51:19;;;;;;;4.35;2.45;;;;;;;;;;4939403;29;20036;-79
2023/07/04 06:53:46;;;;;;;3.95;1.90;;;;;;;;;;4933546;29;20023;-80
2023/07/04 06:56:20;;;;;;;5.20;2.40;;;;;;;;;;4920466;29;20118;-80
2023/07/04 06:58:49;;;;;;;4.72;2.33;;;;;;;;;;4935619;29;20165;-80
2023/07/04 07:01:16;;;;;;;5.10;2.30;;;;;;;;;;4935362;29;20416;-79
2023/07/04 07:03:42;;;;;;;8.02;2.30;;;;;;;;;;4938162;29;20040;-79
2023/07/04 07:06:12;;;;;;;6.55;2.33;;;;;;;;;;4944896;29;20071;-80
2023/07/04 07:08:38;;;;;;;7.43;2.55;;;;;;;;;;4930858;29;20102;-78
2023/07/04 07:11:12;;;;;;;5.38;3.15;;;;;;;;;;4933108;29;20043;-78
2023/07/04 07:13:40;;;;;;;5.00;2.38;;;;;;;;;;4932053;29;20045;-78
2023/07/04 07:16:09;;;;;;;6.45;2.50;;;;;;;;;;4938312;29;20043;-77
2023/07/04 07:18:36;;;;;;;4.28;2.55;;;;;;;;;;4938190;28;20049;-78
2023/07/04 07:21:05;;;;;;;7.40;2.97;;;;;;;;;;4925465;29;20036;-76
2023/07/04 07:23:37;;;;;;;6.78;2.95;;;;;;;;;;4939678;29;20035;-78
2023/07/04 07:26:04;;;;;;;6.50;3.05;;;;;;;;;;4944616;29;20109;-75
2023/07/04 07:28:41;;;;;;;5.45;3.25;;;;;;;;;;4952558;28;20095;-79
2023/07/04 07:31:12;;;;;;;4.88;3.35;;;;;;;;;;4932619;28;20094;-81
2023/07/04 07:33:40;;;;;;;7.60;3.33;;;;;;;;;;4930841;28;20041;-81
2023/07/04 07:36:27;;;;;;;7.05;3.90;;;;;;;;;;4935378;28;20039;-81
2023/07/04 07:38:54;;;;;;;11.30;4.53;;;;;;;;;;4937206;29;20425;-81
2023/07/04 07:41:22;;;;;;;9.23;4.70;;;;;;;;;;4944215;28;20281;-82
2023/07/04 07:43:47;;;;;;;8.02;4.22;;;;;;;;;;4929370;29;20118;-80
2023/07/04 07:46:15;;;;;;;8.23;3.45;;;;;;;;;;4950132;28;20145;-80
2023/07/04 07:48:41;;;;;;;10.13;4.95;;;;;;;;;;4931698;29;20054;-82
2023/07/04 07:51:10;;;;;;;8.50;4.43;;;;;;;;;;4933554;29;20066;-83
2023/07/04 07:53:37;;;;;;;12.13;5.50;;;;;;;;;;4947719;28;20033;-80
2023/07/04 07:56:06;;;;;;;8.52;4.10;;;;;;;;;;4915561;28;20042;-78
2023/07/04 07:58:32;;;;;;;9.10;4.05;;;;;;;;;;4934931;29;20522;-81
2023/07/04 08:00:57;;;;;;;10.55;5.63;;;;;;;;;;4935895;28;20039;-79
2023/07/04 08:03:23;;;;;;;12.57;4.93;;;;;;;;;;4931213;29;20059;-81
2023/07/04 08:05:49;;;;;;;10.07;5.93;;;;;;;;;;4959131;28;20049;-79
2023/07/04 08:08:14;;;;;;;12.80;4.95;;;;;;;;;;4936494;29;20031;-79
2023/07/04 08:10:42;;;;;;;10.02;4.78;;;;;;;;;;4950335;28;20041;-80
2023/07/04 08:13:08;;;;;;;11.13;5.68;;;;;;;;;;4936669;28;20089;-81
2023/07/04 08:15:34;;;;;;;13.00;7.78;;;;;;;;;;4932675;29;20027;-82
2023/07/04 08:18:09;;;;;;;15.10;6.30;;;;;;;;;;4951714;28;20535;-80
2023/07/04 08:20:35;;;;;;;12.30;6.43;;;;;;;;;;4912748;29;20038;-79
2023/07/04 08:23:02;;;;;;;12.63;6.65;;;;;;;;;;4951047;28;20034;-79
2023/07/04 08:25:36;;;;;;;13.25;7.18;;;;;;;;;;4947379;28;20316;-79
2023/07/04 08:28:02;;;;;;;9.25;5.75;;;;;;;;;;4931075;29;20139;-79
2023/07/04 08:30:27;;;;;;;12.80;7.03;;;;;;;;;;4916894;29;20130;-79
2023/07/04 08:32:54;;;;;;;12.50;7.35;;;;;;;;;;4938140;29;20079;-79
2023/07/04 08:35:21;;;;;;;12.55;7.25;;;;;;;;;;4933289;29;20473;-80
2023/07/04 08:37:48;;;;;;;17.00;8.38;;;;;;;;;;4936151;29;20036;-79
2023/07/04 08:40:15;;;;;;;19.23;8.15;;;;;;;;;;4910798;29;20183;-81
2023/07/04 08:42:41;;;;;;;15.25;7.80;;;;;;;;;;4914692;29;20082;-79
2023/07/04 08:45:15;;;;;;;16.33;7.75;;;;;;;;;;4930761;29;20024;-79
2023/07/04 08:47:41;;;;;;;14.20;7.75;;;;;;;;;;4933008;29;20382;-79
2023/07/04 08:50:27;;;;;;;15.45;8.32;;;;;;;;;;4915091;29;20616;-77
2023/07/04 08:52:59;;;;;;;16.30;9.07;;;;;;;;;;4916047;29;20020;-76
2023/07/04 08:55:26;;;;;;;18.77;8.98;;;;;;;;;;4928444;29;20455;-80
2023/07/04 08:57:58;;;;;;;15.05;8.73;;;;;;;;;;4936391;29;20392;-79
2023/07/04 09:00:28;;;;;;;12.20;7.43;;;;;;;;;;4915651;29;20444;-78
2023/07/04 09:03:07;;;;;;;15.43;7.47;;;;;;;;;;4931184;29;20036;-79
2023/07/04 09:05:52;;;;;;;13.48;7.95;;;;;;;;;;4922283;28;20152;-78
2023/07/04 09:08:24;;;;;;;16.98;7.65;;;;;;;;;;4929275;29;20040;-79
2023/07/04 09:10:54;;;;;;;14.65;8.63;;;;;;;;;;4925346;29;20032;-79
2023/07/04 09:13:31;;;;;;;15.10;9.10;;;;;;;;;;4911077;29;20027;-79
2023/07/04 09:16:02;;;;;;;16.98;8.65;;;;;;;;;;4930003;29;20134;-79
2023/07/04 09:18:38;;;;;;;;;;;;;;;;;;4931324;29;20035;-76
2023/07/04 09:21:17;;;;;;;15.63;9.70;;;;;;;;;;4923484;29;20010;-76
2023/07/04 09:23:45;;;;;;;18.55;10.23;;;;;;;;;;4904958;29;20036;-79
2023/07/04 09:26:15;;;;;;;17.02;10.05;;;;;;;;;;4912292;29;20095;-79
2023/07/04 09:28:43;;;;;;;19.15;10.18;;;;;;;;;;4934622;29;20047;-78
2023/07/04 09:31:19;;;;;;;16.75;10.02;;;;;;;;;;4947235;28;20435;-77
2023/07/04 09:33:48;;;;;;;18.30;10.80;;;;;;;;;;4947487;29;20046;-77
2023/07/04 09:36:16;;;;;;;17.92;10.45;;;;;;;;;;4930062;28;20042;-79
2023/07/04 09:38:56;;;;;;;21.52;11.00;;;;;;;;;;4932148;29;20035;-77
2023/07/04 09:41:28;;;;;;;22.45;11.93;;;;;;;;;;4944977;28;20028;-78
2023/07/04 09:44:15;;;;;;;18.23;10.80;;;;;;;;;;4934495;29;20031;-76
2023/07/04 09:46:48;;;;;;;22.67;9.93;;;;;;;;;;4947375;28;20038;-76
2023/07/04 09:49:27;;;;;;;16.17;8.88;;;;;;;;;;4933074;29;20038;-77
2023/07/04 09:52:18;;;;;;;16.23;8.73;;;;;;;;;;4949321;28;20050;-77
2023/07/04 09:54:44;;;;;;;;;;;;;;;;;;4939528;29;20031;-79
2023/07/04 09:57:24;;;;;;;16.02;9.32;;;;;;;;;;4947969;28;19940;-78
2023/07/04 09:59:52;;;;;;;21.87;10.20;;;;;;;;;;4941964;28;20038;-77
2023/07/04 10:02:30;;;;;;;17.58;11.23;;;;;;;;;;4945762;29;20277;-78
2023/07/04 10:05:33;;;;;;;18.13;10.27;;;;;;;;;;4931333;29;20066;-76
2023/07/04 10:08:05;;;;;;;21.75;12.48;;;;;;;;;;4932675;29;20057;-79
2023/07/04 10:11:00;;;;;;;19.17;11.85;;;;;;;;;;4947662;29;20043;-77
2023/07/04 10:13:36;;;;;;;25.33;12.85;;;;;;;;;;4944599;28;20043;-77
2023/07/04 10:16:18;;;;;;;20.63;12.13;;;;;;;;;;4928297;28;20125;-79
2023/07/04 10:18:47;;;;;;;22.00;13.80;;;;;;;;;;4945068;28;20082;-77
2023/07/04 10:21:13;;;;;;;26.13;14.50;;;;;;;;;;4944685;29;20059;-76
2023/07/04 10:23:38;;;;;;;22.73;13.30;;;;;;;;;;4941270;28;20031;-80
2023/07/04 10:26:06;;;;;;;25.17;15.00;;;;;;;;;;4931267;28;20028;-76
2023/07/04 10:28:35;;;;;;;26.67;15.80;;;;;;;;;;4927164;29;20051;-77
2023/07/04 10:31:11;;;;;;;29.35;15.88;;;;;;;;;;4941434;29;20058;-77
2023/07/04 10:34:15;;;;;;;24.80;13.73;;;;;;;;;;4930506;29;20114;-77
2023/07/04 10:36:43;;;;;;;22.77;13.00;;;;;;;;;;4917837;29;20381;-78
2023/07/04 10:39:14;;;;;;;23.20;14.75;;;;;;;;;;4931678;29;20078;-75
2023/07/04 10:41:43;;;;;;;;;;;;;;;;;;4942978;29;20027;-76
2023/07/04 10:44:16;;;;;;;24.20;14.98;;;;;;;;;;4931628;29;20005;-77
2023/07/04 10:46:48;;;;;;;25.38;16.02;;;;;;;;;;4931808;29;20122;-75
2023/07/04 10:49:31;;;;;;;25.25;15.02;;;;;;;;;;4931484;29;20475;-77
2023/07/04 10:52:12;;;;;;;22.80;13.90;;;;;;;;;;4909711;29;20103;-76
2023/07/04 10:54:37;;;;;;;23.55;14.70;;;;;;;;;;4928069;29;20059;-77
2023/07/04 10:57:10;;;;;;;22.27;14.70;;;;;;;;;;4928475;29;20074;-79
2023/07/04 10:59:44;;;;;;;23.05;14.10;;;;;;;;;;4922940;29;20035;-75
2023/07/04 11:02:34;;;;;;;25.05;15.23;;;;;;;;;;4933552;29;20038;-78
2023/07/04 11:05:08;;;;;;;24.15;14.50;;;;;;;;;;4938180;29;20035;-76
2023/07/04 11:07:39;;;;;;;23.50;13.45;;;;;;;;;;4925888;29;20118;-77
2023/07/04 11:10:06;;;;;;;22.08;13.30;;;;;;;;;;4926994;29;20035;-77
2023/07/04 11:12:34;;;;;;;26.17;13.15;;;;;;;;;;4931010;29;20165;-77
2023/07/04 11:15:03;;;;;;;19.65;12.43;;;;;;;;;;4926852;29;20039;-77
2023/07/04 11:17:33;;;;;;;20.02;11.68;;;;;;;;;;4928159;29;20038;-77
2023/07/04 11:20:13;;;;;;;22.15;11.73;;;;;;;;;;4920656;29;20039;-75
2023/07/04 11:22:57;;;;;;;20.98;12.63;;;;;;;;;;4914204;29;20440;-76
2023/07/04 11:25:53;;;;;;;21.00;12.23;;;;;;;;;;4932960;29;20031;-79
2023/07/04 11:28:32;;;;;;;20.88;12.75;;;;;;;;;;4933770;28;20051;-77
2023/07/04 11:31:21;;;;;;;21.13;13.25;;;;;;;;;;4942153;28;20027;-77
2023/07/04 11:33:53;;;;;;;19.17;13.18;;;;;;;;;;4947886;28;20023;-77
2023/07/04 11:36:26;;;;;;;24.88;15.45;;;;;;;;;;4955026;28;20040;-78
2023/07/04 11:39:29;;;;;;;28.05;17.75;;;;;;;;;;4945099;28;20112;-78
2023/07/04 11:41:55;;;;;;;32.92;17.27;;;;;;;;;;4946594;29;20035;-78
2023/07/04 11:44:28;;;;;;;28.85;16.42;;;;;;;;;;4926418;29;20110;-77
2023/07/04 11:47:01;;;;;;;26.38;17.40;;;;;;;;;;4949637;28;20447;-75
2023/07/04 11:49:32;;;;;;;26.20;16.83;;;;;;;;;;4933808;29;20516;-76
2023/07/04 11:52:39;;;;;;;29.20;18.48;;;;;;;;;;4954182;29;20142;-76
2023/07/04 11:55:16;;;;;;;26.77;16.33;;;;;;;;;;4921706;29;20110;-79
2023/07/04 11:58:09;;;;;;;28.02;17.27;;;;;;;;;;4962298;28;20027;-79
2023/07/04 12:00:41;;;;;;;26.08;16.83;;;;;;;;;;4943467;29;20119;-77
2023/07/04 12:03:21;;;;;;;25.65;17.30;;;;;;;;;;4954974;29;20027;-76
2023/07/04 12:05:54;;;;;;;31.42;17.23;;;;;;;;;;4945071;29;20130;-76
2023/07/04 12:08:47;;;;;;;24.58;15.85;;;;;;;;;;4941619;29;20031;-77
2023/07/04 12:11:26;;;;;;;26.50;16.58;;;;;;;;;;4944535;28;20439;-79
2023/07/04 12:13:53;;;;;;;32.22;16.67;;;;;;;;;;4930206;29;20033;-77
2023/07/04 12:16:24;;;;;;;26.60;16.88;;;;;;;;;;4920197;28;20039;-78
2023/07/04 12:18:53;;;;;;;26.58;16.42;;;;;;;;;;4948947;28;20488;-77
2023/07/04 12:21:22;;;;;;;25.73;15.98;;;;;;;;;;4952133;29;20110;-76
2023/07/04 12:23:49;;;;;;;28.52;17.02;;;;;;;;;;4937301;29;20027;-77
2023/07/04 12:26:26;;;;;;;24.45;15.77;;;;;;;;;;4955592;28;20035;-77
2023/07/04 12:28:53;;;;;;;26.70;15.93;;;;;;;;;;4931143;29;20059;-76
2023/07/04 12:31:19;;;;;;;27.23;18.30;;;;;;;;;;4948023;28;20050;-78
2023/07/04 12:33:44;;;;;;;23.52;16.70;;;;;;;;;;4950424;28;20543;-76
2023/07/04 12:36:15;;;;;;;28.25;17.23;;;;;;;;;;4951145;28;20114;-77
2023/07/04 12:38:49;;;;;;;29.75;18.27;;;;;;;;;;4958897;28;20031;-77
2023/07/04 12:41:30;;;;;;;33.67;18.50;;;;;;;;;;4948967;28;20119;-80
2023/07/04 12:44:02;;;;;;;31.77;21.85;;;;;;;;;;4936060;29;20081;-81
2023/07/04 12:46:31;;;;;;;32.88;20.73;;;;;;;;;;4933109;28;20051;-78
2023/07/04 12:48:58;;;;;;;28.20;20.00;;;;;;;;;;4957200;28;20098;-79
2023/07/04 12:51:33;;;;;;;36.80;21.42;;;;;;;;;;4936486;29;20326;-79
2023/07/04 12:54:01;;;;;;;28.88;20.02;;;;;;;;;;4939070;29;20055;-77
2023/07/04 12:56:33;;;;;;;29.73;21.08;;;;;;;;;;4937186;28;20026;-79
2023/07/04 12:58:59;;;;;;;29.90;19.25;;;;;;;;;;4952859;28;20023;-78
2023/07/04 13:01:31;;;;;;;27.35;20.85;;;;;;;;;;4939005;29;20027;-81
2023/07/04 13:04:10;;;;;;;32.78;23.33;;;;;;;;;;4948068;29;20046;-77
2023/07/04 13:06:36;;;;;;;32.42;22.48;;;;;;;;;;4938112;29;20401;-77
2023/07/04 13:09:05;;;;;;;28.55;20.52;;;;;;;;;;4945873;28;20075;-80
2023/07/04 13:11:31;;;;;;;32.30;21.00;;;;;;;;;;4954884;28;20135;-78
2023/07/04 13:14:09;;;;;;;28.73;19.10;;;;;;;;;;4935607;29;20118;-76
2023/07/04 13:16:35;;;;;;;30.08;19.20;;;;;;;;;;4945724;29;20096;-75
2023/07/04 13:19:11;;;;;;;30.65;19.80;;;;;;;;;;4950053;28;20480;-79
2023/07/04 13:21:41;;;;;;;29.55;19.60;;;;;;;;;;4949533;29;20047;-75
2023/07/04 13:24:09;;;;;;;31.58;21.15;;;;;;;;;;4918818;29;20126;-75
2023/07/04 13:26:37;;;;;;;31.45;21.75;;;;;;;;;;4938429;28;20035;-77
2023/07/04 13:29:21;;;;;;;32.05;20.30;;;;;;;;;;4926248;29;20056;-82
2023/07/04 13:31:47;;;;;;;31.92;21.63;;;;;;;;;;4942223;28;20095;-76
2023/07/04 13:34:22;;;;;;;34.90;21.25;;;;;;;;;;4916389;29;20810;-76
2023/07/04 13:37:10;;;;;;;29.90;19.65;;;;;;;;;;4948287;28;20046;-77
2023/07/04 13:39:35;;;;;;;28.55;19.63;;;;;;;;;;4930366;29;20126;-78
2023/07/04 13:42:01;;;;;;;26.90;18.75;;;;;;;;;;4928599;29;20159;-76
2023/07/04 13:44:26;;;;;;;27.25;18.77;;;;;;;;;;4941346;29;20031;-77
2023/07/04 13:46:53;;;;;;;28.88;18.85;;;;;;;;;;4928321;29;20040;-78
2023/07/04 13:49:20;;;;;;;26.50;18.20;;;;;;;;;;4923415;29;20063;-76
2023/07/04 13:51:46;;;;;;;26.70;17.48;;;;;;;;;;4929641;29;20042;-76
2023/07/04 13:54:13;;;;;;;26.27;17.65;;;;;;;;;;4930130;29;20031;-77
2023/07/04 13:56:39;;;;;;;25.55;18.15;;;;;;;;;;4927621;29;20042;-77
2023/07/04 13:59:04;;;;;;;27.23;19.05;;;;;;;;;;4928586;29;20031;-75
2023/07/04 14:01:30;;;;;;;31.17;20.45;;;;;;;;;;4930865;29;20124;-81
2023/07/04 14:03:57;;;;;;;30.58;20.05;;;;;;;;;;4903843;29;20687;-76
2023/07/04 14:06:23;;;;;;;26.50;18.65;;;;;;;;;;4917665;29;20475;-75
2023/07/04 14:08:49;;;;;;;28.95;19.20;;;;;;;;;;4926535;29;20079;-74
2023/07/04 14:11:20;;;;;;;24.42;17.08;;;;;;;;;;4914473;29;20505;-75
2023/07/04 14:13:46;;;;;;;30.77;18.27;;;;;;;;;;4912963;29;20024;-76
2023/07/04 14:16:20;;;;;;;30.58;18.30;;;;;;;;;;4917378;29;20032;-76
2023/07/04 14:18:46;;;;;;;29.23;18.20;;;;;;;;;;4913473;29;20028;-76
2023/07/04 14:21:14;;;;;;;27.23;17.67;;;;;;;;;;4913371;29;20032;-76
2023/07/04 14:23:41;;;;;;;25.75;17.25;;;;;;;;;;4913773;29;20126;-76
2023/07/04 14:26:13;;;;;;;24.15;17.25;;;;;;;;;;4913236;29;20028;-77
2023/07/04 14:28:39;;;;;;;26.38;17.35;;;;;;;;;;4916190;29;20433;-77
2023/07/04 14:31:05;;;;;;;25.55;17.52;;;;;;;;;;4931873;29;20036;-76
2023/07/04 14:33:30;;;;;;;22.98;16.73;;;;;;;;;;4916736;29;20028;-76
2023/07/04 14:35:56;;;;;;;25.42;17.27;;;;;;;;;;4931666;29;20095;-77
2023/07/04 14:38:23;;;;;;;27.40;19.40;;;;;;;;;;4916232;29;20063;-77
2023/07/04 14:40:48;;;;;;;22.23;17.20;;;;;;;;;;4931973;29;20059;-76
2023/07/04 14:43:14;;;;;;;23.58;17.38;;;;;;;;;;4931720;29;20062;-77
2023/07/04 14:45:39;;;;;;;20.08;16.02;;;;;;;;;;4933037;29;20031;-77
2023/07/04 14:48:06;;;;;;;23.55;16.48;;;;;;;;;;4917816;29;20049;-79
2023/07/04 14:50:32;;;;;;;21.58;16.73;;;;;;;;;;4917812;29;20031;-78